Time;durP1;ratioP1;P1;durP2;ratioP2;P2;SDS_P1;SDS_P2;PMS_P1;PMS_P2;Temp;Humidity;BMP_temperature;BMP_pressure;BME280_temperature;BME280_humidity;BME280_pressure;Samples;Min_cycle;Max_cycle;Signal;HPM_P1;HPM_P2
2024/04/23 00:01:46;;;;;;;;;;;;;;;1.64;100.00;99751.06;5326458;26;20688;-59
2024/04/23 00:04:13;;;;;;;;;;;;;;;1.76;100.00;99752.31;5324802;26;19928;-59
2024/04/23 00:06:43;;;;;;;;;;;;;;;1.76;100.00;99744.38;5327101;26;20020;-60
2024/04/23 00:09:10;;;;;;;;;;;;;;;1.42;100.00;99742.91;5313578;26;19934;-59
2024/04/23 00:11:43;;;;;;;;;;;;;;;1.23;100.00;99746.75;5323019;26;19926;-60
2024/04/23 00:14:10;;;;;;;;;;;;;;;1.06;100.00;99745.94;5327489;26;19974;-59
2024/04/23 00:16:40;;;;;;;;;;;;;;;0.97;100.00;99744.31;5325193;26;19926;-59
2024/04/23 00:19:07;;;;;;;;;;;;;;;0.92;100.00;99743.97;5328024;26;19953;-59
2024/04/23 00:21:37;;;;;;;;;;;;;;;0.86;100.00;99742.84;5319993;26;20315;-60
2024/04/23 00:24:04;;;;;;;;;;;;;;;0.75;100.00;99745.84;5323750;26;20401;-59
2024/04/23 00:26:34;;;;;;;;;;;;;;;0.75;100.00;99739.72;5312202;26;19934;-61
2024/04/23 00:29:04;;;;;;;;;;;;;;;0.75;100.00;99735.28;5327926;26;19926;-59
2024/04/23 00:31:34;;;;;;;;;;;;;;;0.89;100.00;99736.41;5316961;26;19934;-61
2024/04/23 00:34:01;;;;;;;;;;;;;;;1.06;100.00;99730.09;5327493;26;19926;-60
2024/04/23 00:36:31;;;;;;;;;;;;;;;1.11;100.00;99734.88;5322063;26;19941;-60
2024/04/23 00:38:58;;;;;;;;;;;;;;;1.17;100.00;99738.66;5323122;26;20365;-59
2024/04/23 00:41:28;;;;;;;;;;;;;;;1.20;100.00;99730.38;5324464;26;19933;-59
2024/04/23 00:43:55;;;;;;;;;;;;;;;1.23;100.00;99722.97;5323351;26;19963;-59
2024/04/23 00:46:28;;;;;;;;;;;;;;;1.32;100.00;99725.56;5318211;26;19982;-60
2024/04/23 00:48:56;;;;;;;;;;;;;;;1.11;100.00;99712.94;5328065;26;20374;-59
2024/04/23 00:51:26;;;;;;;;;;;;;;;1.25;100.00;99714.88;5321810;26;20826;-59
2024/04/23 00:53:53;;;;;;;;;;;;;;;1.09;100.00;99718.38;5320855;26;19925;-59
2024/04/23 00:56:23;;;;;;;;;;;;;;;1.03;100.00;99722.53;5324364;26;19932;-59
2024/04/23 00:58:50;;;;;;;;;;;;;;;0.95;100.00;99717.28;5324681;26;19938;-59
2024/04/23 01:01:20;;;;;;;;;;;;;;;0.94;100.00;99723.53;5327801;26;20466;-59
2024/04/23 01:03:50;;;;;;;;;;;;;;;1.05;100.00;99720.56;5322863;26;19933;-59
2024/04/23 01:06:20;;;;;;;;;;;;;;;1.06;100.00;99711.63;5316945;26;19933;-59
2024/04/23 01:08:48;;;;;;;;;;;;;;;1.18;100.00;99703.34;5323129;26;19925;-59
2024/04/23 01:11:17;;;;;;;;;;;;;;;0.88;100.00;99713.66;5322714;26;19926;-59
2024/04/23 01:13:44;;;;;;;;;;;;;;;0.58;100.00;99699.34;5317880;26;20603;-59
2024/04/23 01:16:15;;;;;;;;;;;;;;;0.54;100.00;99705.94;5339974;26;19932;-59
2024/04/23 01:18:42;;;;;;;;;;;;;;;0.56;100.00;99707.41;5324413;26;19969;-59
2024/04/23 01:21:14;;;;;;;;;;;;;;;0.69;100.00;99703.44;5326483;26;19934;-59
2024/04/23 01:23:42;;;;;;;;;;;;;;;0.74;100.00;99696.69;5325630;26;19932;-59
2024/04/23 01:26:14;;;;;;;;;;;;;;;0.89;100.00;99699.47;5316693;26;19933;-59
2024/04/23 01:28:42;;;;;;;;;;;;;;;0.76;100.00;99699.97;5323685;26;19926;-59
2024/04/23 01:31:12;;;;;;;;;;;;;;;0.91;100.00;99691.38;5316930;26;19933;-59
2024/04/23 01:33:39;;;;;;;;;;;;;;;0.68;100.00;99699.19;5322535;26;19945;-59
2024/04/23 01:36:09;;;;;;;;;;;;;;;0.53;100.00;99699.03;5322319;26;19934;-59
2024/04/23 01:38:37;;;;;;;;;;;;;;;0.79;100.00;99701.47;5318807;26;20635;-59
2024/04/23 01:41:07;;;;;;;;;;;;;;;0.67;100.00;99702.78;5325074;26;19933;-59
2024/04/23 01:43:37;;;;;;;;;;;;;;;0.62;100.00;99701.50;5320833;26;19925;-59
2024/04/23 01:46:07;;;;;;;;;;;;;;;0.60;100.00;99700.84;5321358;26;19934;-59
2024/04/23 01:48:34;;;;;;;;;;;;;;;0.09;100.00;99691.44;5327908;26;19926;-59
2024/04/23 01:51:04;;;;;;;;;;;;;;;0.46;100.00;99704.13;5318287;26;19933;-59
2024/04/23 01:53:31;;;;;;;;;;;;;;;0.45;100.00;99702.50;5323680;26;19927;-59
2024/04/23 01:56:01;;;;;;;;;;;;;;;0.53;100.00;99701.66;5319039;26;19932;-59
2024/04/23 01:58:28;;;;;;;;;;;;;;;0.33;100.00;99703.81;5323106;26;21767;-60
2024/04/23 02:01:01;;;;;;;;;;;;;;;0.28;100.00;99695.56;5325262;26;19926;-59
2024/04/23 02:03:28;;;;;;;;;;;;;;;0.36;100.00;99692.94;5322809;26;19934;-59
2024/04/23 02:05:58;;;;;;;;;;;;;;;0.20;100.00;99694.56;5323538;26;20260;-60
2024/04/23 02:08:25;;;;;;;;;;;;;;;0.15;100.00;99691.59;5322984;26;19926;-60
2024/04/23 02:10:55;;;;;;;;;;;;;;;0.25;100.00;99690.59;5319128;26;19926;-60
2024/04/23 02:13:22;;;;;;;;;;;;;;;0.54;100.00;99685.66;5320229;26;19925;-59
2024/04/23 02:15:52;;;;;;;;;;;;;;;0.72;100.00;99692.56;5320842;26;19934;-59
2024/04/23 02:18:22;;;;;;;;;;;;;;;0.91;100.00;99692.19;5320428;26;19926;-59
2024/04/23 02:20:52;;;;;;;;;;;;;;;0.81;100.00;99688.94;5318589;26;19926;-60
2024/04/23 02:23:19;;;;;;;;;;;;;;;1.02;100.00;99675.16;5310907;26;19926;-59
2024/04/23 02:25:49;;;;;;;;;;;;;;;0.62;100.00;99687.47;5320157;26;20354;-59
2024/04/23 02:28:16;;;;;;;;;;;;;;;0.51;100.00;99688.63;5325897;26;19930;-59
2024/04/23 02:30:46;;;;;;;;;;;;;;;0.44;100.00;99679.72;5319830;26;19932;-59
2024/04/23 02:33:13;;;;;;;;;;;;;;;0.01;100.00;99684.34;5325803;26;20008;-60
2024/04/23 02:35:46;;;;;;;;;;;;;;;0.06;100.00;99689.94;5319327;26;20373;-59
2024/04/23 02:38:13;;;;;;;;;;;;;;;-0.09;100.00;99694.22;5314683;26;19937;-59
2024/04/23 02:40:43;;;;;;;;;;;;;;;-0.22;100.00;99689.41;5320389;26;19938;-59
2024/04/23 02:43:10;;;;;;;;;;;;;;;-0.36;100.00;99693.47;5324448;26;19941;-59
2024/04/23 02:45:40;;;;;;;;;;;;;;;-0.52;100.00;99683.72;5311640;26;19938;-59
2024/04/23 02:48:07;;;;;;;;;;;;;;;-0.59;100.00;99679.25;5324016;26;19925;-59
2024/04/23 02:50:37;;;;;;;;;;;;;;;-0.62;100.00;99679.56;5316775;26;19930;-60
2024/04/23 02:53:07;;;;;;;;;;;;;;;-0.44;100.00;99685.56;5326040;26;19926;-59
2024/04/23 02:55:37;;;;;;;;;;;;;;;-0.55;100.00;99680.56;5312115;26;20092;-60
2024/04/23 02:58:04;;;;;;;;;;;;;;;-0.60;100.00;99685.50;5328123;26;20364;-59
2024/04/23 03:00:34;;;;;;;;;;;;;;;-0.47;100.00;99680.63;5315184;26;19954;-59
2024/04/23 03:03:01;;;;;;;;;;;;;;;-0.48;100.00;99684.22;5317035;26;19925;-59
2024/04/23 03:05:31;;;;;;;;;;;;;;;-0.46;100.00;99683.06;5328234;26;20000;-59
2024/04/23 03:07:58;;;;;;;;;;;;;;;-0.65;100.00;99688.59;5325487;26;20455;-59
2024/04/23 03:10:31;;;;;;;;;;;;;;;-0.87;100.00;99679.50;5318810;26;20408;-59
2024/04/23 03:12:58;;;;;;;;;;;;;;;-0.01;100.00;99687.13;5312701;26;19982;-59
2024/04/23 03:15:28;;;;;;;;;;;;;;;0.07;100.00;99681.03;5316945;26;19926;-59
2024/04/23 03:17:55;;;;;;;;;;;;;;;0.37;100.00;99684.84;5320797;26;19926;-59
2024/04/23 03:20:25;;;;;;;;;;;;;;;-0.02;100.00;99682.03;5314484;26;19987;-60
2024/04/23 03:22:52;;;;;;;;;;;;;;;-0.12;100.00;99678.72;5325984;26;20011;-59
2024/04/23 03:25:22;;;;;;;;;;;;;;;-0.23;100.00;99680.66;5326892;26;19971;-59
2024/04/23 03:27:51;;;;;;;;;;;;;;;-0.22;100.00;99678.88;5325489;26;19927;-59
2024/04/23 03:30:21;;;;;;;;;;;;;;;-0.54;100.00;99679.63;5327385;26;19941;-59
2024/04/23 03:32:48;;;;;;;;;;;;;;;-0.88;100.00;99675.19;5317670;26;19933;-60
2024/04/23 03:35:18;;;;;;;;;;;;;;;-1.17;100.00;99680.81;5323256;26;19926;-59
2024/04/23 03:37:48;;;;;;;;;;;;;;;-1.21;100.00;99675.03;5324858;26;19929;-59
2024/04/23 03:40:18;;;;;;;;;;;;;;;-1.33;100.00;99673.63;5329624;26;19926;-59
2024/04/23 03:42:48;;;;;;;;;;;;;;;-1.46;100.00;99674.03;5316849;26;19933;-59
2024/04/23 03:45:20;;;;;;;;;;;;;;;-1.31;100.00;99677.75;5326319;26;20398;-59
2024/04/23 03:47:50;;;;;;;;;;;;;;;-1.42;100.00;99678.03;5325535;26;19972;-59
2024/04/23 03:50:18;;;;;;;;;;;;;;;-0.42;100.00;99678.34;5322894;26;19926;-59
2024/04/23 03:52:48;;;;;;;;;;;;;;;-0.66;100.00;99676.44;5328016;26;19934;-60
2024/04/23 03:55:15;;;;;;;;;;;;;;;-0.81;100.00;99678.84;5328186;26;19930;-58
2024/04/23 03:57:45;;;;;;;;;;;;;;;-0.71;100.00;99684.81;5325358;26;19926;-59
2024/04/23 04:00:14;;;;;;;;;;;;;;;-0.99;100.00;99683.38;5322202;26;19941;-59
2024/04/23 04:08:18;;;;;;;;;;;;;;;-1.26;100.00;99690.44;5324038;26;19929;-59
2024/04/23 04:10:48;;;;;;;;;;;;;;;-1.35;100.00;99686.09;5316945;26;19938;-59
2024/04/23 04:13:18;;;;;;;;;;;;;;;-1.09;100.00;99692.19;5328109;26;19946;-59
2024/04/23 04:15:47;;;;;;;;;;;;;;;-1.19;100.00;99688.84;5323167;26;20520;-60
2024/04/23 04:18:19;;;;;;;;;;;;;;;-1.13;100.00;99690.84;5326706;26;19926;-59
2024/04/23 04:20:47;;;;;;;;;;;;;;;-1.12;100.00;99692.50;5318285;26;19926;-59
2024/04/23 04:23:17;;;;;;;;;;;;;;;-1.02;100.00;99683.66;5324602;26;20000;-59
2024/04/23 04:25:44;;;;;;;;;;;;;;;-0.93;100.00;99690.63;5325683;26;19995;-59
2024/04/23 04:28:14;;;;;;;;;;;;;;;-0.49;100.00;99687.84;5323208;26;19926;-59
2024/04/23 04:30:41;;;;;;;;;;;;;;;-0.73;100.00;99697.28;5325484;26;19933;-58
2024/04/23 04:33:11;;;;;;;;;;;;;;;-0.80;100.00;99687.56;5323625;26;19933;-58
2024/04/23 04:35:41;;;;;;;;;;;;;;;-0.34;100.00;99685.44;5316870;26;19999;-59
2024/04/23 04:38:11;;;;;;;;;;;;;;;-0.39;100.00;99691.19;5328742;26;19949;-59
2024/04/23 04:40:38;;;;;;;;;;;;;;;0.03;100.00;99687.63;5320964;26;20384;-59
2024/04/23 04:43:08;;;;;;;;;;;;;;;1.16;100.00;99686.84;5320691;26;19925;-59
2024/04/23 04:45:36;;;;;;;;;;;;;;;1.62;100.00;99692.25;5307647;26;19926;-59
2024/04/23 04:48:06;;;;;;;;;;;;;;;2.34;100.00;99699.91;5322074;26;19926;-59
2024/04/23 04:50:33;;;;;;;;;;;;;;;2.79;100.00;99699.00;5322947;26;20688;-59
2024/04/23 04:53:06;;;;;;;;;;;;;;;3.03;98.69;99699.75;5322715;26;19944;-59
2024/04/23 04:55:33;;;;;;;;;;;;;;;3.36;96.03;99697.56;5319404;26;19926;-59
2024/04/23 04:58:03;;;;;;;;;;;;;;;3.16;96.73;99694.63;5319322;26;19934;-59
2024/04/23 05:00:30;;;;;;;;;;;;;;;3.79;94.23;99692.34;5318858;26;20471;-59
2024/04/23 05:03:00;;;;;;;;;;;;;;;4.54;90.34;99696.38;5319660;26;19926;-59
2024/04/23 05:05:27;;;;;;;;;;;;;;;4.99;89.03;99701.38;5324994;26;19934;-59
2024/04/23 05:07:57;;;;;;;;;;;;;;;4.65;86.20;99700.34;5322324;26;20463;-59
2024/04/23 05:10:27;;;;;;;;;;;;;;;4.58;85.96;99704.78;5323237;26;20688;-59
2024/04/23 05:12:58;;;;;;;;;;;;;;;4.50;87.86;99705.72;5314600;26;19926;-59
2024/04/23 05:15:25;;;;;;;;;;;;;;;5.67;80.81;99696.22;5321554;26;20719;-59
2024/04/23 05:17:55;;;;;;;;;;;;;;;5.05;83.10;99703.28;5318320;26;19933;-59
2024/04/23 05:20:22;;;;;;;;;;;;;;;3.45;91.37;99699.13;5313167;26;20020;-59
2024/04/23 05:22:52;;;;;;;;;;;;;;;1.88;100.00;99706.00;5323575;26;20371;-59
2024/04/23 05:25:19;;;;;;;;;;;;;;;1.10;100.00;99706.84;5320105;26;19927;-60
2024/04/23 05:27:51;;;;;;;;;;;;;;;0.35;100.00;99710.56;5316844;26;20716;-60
2024/04/23 05:33:04;;;;;;;;;;;;;;;0.06;100.00;99707.56;5328322;26;19930;-59
2024/04/23 05:35:31;;;;;;;;;;;;;;;0.08;100.00;99714.34;5324301;26;19926;-59
2024/04/23 05:38:01;;;;;;;;;;;;;;;0.09;100.00;99712.50;5324260;26;20845;-60
2024/04/23 05:40:31;;;;;;;;;;;;;;;0.02;100.00;99709.69;5321611;26;19926;-59
2024/04/23 05:43:03;;;;;;;;;;;;;;;0.01;100.00;99713.34;5321017;26;19938;-59
2024/04/23 05:45:33;;;;;;;;;;;;;;;-0.71;100.00;99699.78;5321087;26;19961;-59
2024/04/23 05:48:19;;;;;;;;;;;;;;;-0.44;100.00;99706.63;5324365;26;20360;-59
2024/04/23 05:51:28;;;;;;;;;;;;;;;-0.27;100.00;99705.69;5315862;26;19934;-60
2024/04/23 05:54:35;;;;;;;;;;;;;;;-0.15;100.00;99710.66;5324466;26;19932;-59
2024/04/23 05:57:26;;;;;;;;;;;;;;;0.05;100.00;99705.91;5324772;26;19945;-59
2024/04/23 05:59:55;;;;;;;;;;;;;;;0.09;100.00;99704.59;5326148;26;19926;-59
2024/04/23 06:02:26;;;;;;;;;;;;;;;0.08;100.00;99709.06;5328140;26;20438;-59
2024/04/23 06:04:53;;;;;;;;;;;;;;;0.13;100.00;99714.66;5325650;26;19925;-59
2024/04/23 06:07:23;;;;;;;;;;;;;;;0.04;100.00;99704.28;5314467;26;19926;-59
2024/04/23 06:09:50;;;;;;;;;;;;;;;0.31;100.00;99706.59;5318272;26;19961;-59
2024/04/23 06:12:20;;;;;;;;;;;;;;;0.31;100.00;99706.59;5310919;26;19938;-59
2024/04/23 06:14:47;;;;;;;;;;;;;;;0.24;100.00;99704.78;5323228;26;20367;-59
2024/04/23 06:17:21;;;;;;;;;;;;;;;-0.04;100.00;99710.34;5324763;26;19926;-59
2024/04/23 06:19:51;;;;;;;;;;;;;;;0.25;100.00;99706.44;5324746;26;20241;-59
2024/04/23 06:22:21;;;;;;;;;;;;;;;0.07;100.00;99710.03;5322572;26;19926;-60
2024/04/23 06:24:50;;;;;;;;;;;;;;;-0.08;100.00;99703.75;5326790;26;19969;-58
2024/04/23 06:27:20;;;;;;;;;;;;;;;-0.19;100.00;99709.34;5326194;26;19933;-59
2024/04/23 06:29:50;;;;;;;;;;;;;;;-0.23;100.00;99709.63;5326739;26;20256;-59
2024/04/23 06:32:20;;;;;;;;;;;;;;;0.37;100.00;99710.38;5330818;26;19930;-59
2024/04/23 06:34:51;;;;;;;;;;;;;;;0.71;100.00;99698.84;5326933;26;19926;-60
2024/04/23 06:37:18;;;;;;;;;;;;;;;0.95;100.00;99704.06;5327973;26;19926;-61
2024/04/23 06:39:48;;;;;;;;;;;;;;;1.41;100.00;99698.16;5328643;26;20387;-60
2024/04/23 06:42:16;;;;;;;;;;;;;;;1.28;100.00;99702.16;5324778;26;19941;-60
2024/04/23 06:44:46;;;;;;;;;;;;;;;1.30;100.00;99696.72;5316965;26;19926;-60
2024/04/23 06:47:13;;;;;;;;;;;;;;;1.38;100.00;99701.97;5322423;26;19934;-60
2024/04/23 06:49:46;;;;;;;;;;;;;;;1.35;100.00;99699.66;5324898;26;19926;-60
2024/04/23 06:52:16;;;;;;;;;;;;;;;0.96;100.00;99696.97;5325979;26;20488;-60
2024/04/23 06:54:45;;;;;;;;;;;;;;;1.01;100.00;99695.47;5321118;26;19926;-61
2024/04/23 06:57:13;;;;;;;;;;;;;;;1.34;100.00;99705.94;5321252;26;20004;-60
2024/04/23 06:59:44;;;;;;;;;;;;;;;1.16;100.00;99705.34;5324838;26;20008;-60
2024/04/23 07:02:12;;;;;;;;;;;;;;;1.50;100.00;99708.50;5325911;26;20277;-60
2024/04/23 07:04:42;;;;;;;;;;;;;;;1.52;100.00;99705.69;5316039;26;19933;-60
2024/04/23 07:07:15;;;;;;;;;;;;;;;1.47;100.00;99700.94;5317918;26;20615;-60
2024/04/23 07:09:42;;;;;;;;;;;;;;;1.57;100.00;99707.81;5326658;26;19941;-60
2024/04/23 07:12:12;;;;;;;;;;;;;;;3.18;100.00;99711.19;5325401;26;20336;-60
2024/04/23 07:14:40;;;;;;;;;;;;;;;4.99;100.00;99712.00;5321004;26;19926;-60
2024/04/23 07:17:10;;;;;;;;;;;;;;;5.29;95.64;99715.28;5327038;26;19933;-60
2024/04/23 07:19:37;;;;;;;;;;;;;;;4.69;99.24;99708.72;5308590;26;20032;-60
2024/04/23 07:22:07;;;;;;;;;;;;;;;4.04;100.00;99713.22;5321331;26;20782;-60
2024/04/23 07:24:37;;;;;;;;;;;;;;;3.52;100.00;99709.81;5321614;26;20497;-60
2024/04/23 07:27:07;;;;;;;;;;;;;;;4.59;100.00;99702.94;5323668;26;20632;-60
2024/04/23 07:29:34;;;;;;;;;;;;;;;4.49;98.94;99709.41;5321371;26;19933;-60
2024/04/23 07:32:05;;;;;;;;;;;;;;;5.18;95.71;99713.16;5322293;26;19938;-60
2024/04/23 07:34:32;;;;;;;;;;;;;;;4.25;100.00;99707.94;5327121;26;19933;-60
2024/04/23 07:37:02;;;;;;;;;;;;;;;3.98;100.00;99709.50;5323759;26;19926;-60
2024/04/23 07:39:29;;;;;;;;;;;;;;;4.51;98.74;99707.34;5327903;26;19926;-60
2024/04/23 07:42:02;;;;;;;;;;;;;;;5.12;100.00;99708.63;5326203;26;19928;-60
2024/04/23 07:44:29;;;;;;;;;;;;;;;5.82;96.53;99704.88;5353761;26;19927;-60
2024/04/23 07:46:59;;;;;;;;;;;;;;;6.49;91.03;99697.06;5320798;26;19925;-60
2024/04/23 07:49:26;;;;;;;;;;;;;;;7.65;84.32;99704.41;5328850;26;20467;-60
2024/04/23 07:51:56;;;;;;;;;;;;;;;8.67;79.91;99701.78;5327662;26;19926;-60
2024/04/23 07:54:23;;;;;;;;;;;;;;;9.54;78.10;99699.06;5325243;26;19926;-60
2024/04/23 07:56:53;;;;;;;;;;;;;;;9.66;74.65;99704.44;5322425;26;20293;-60
2024/04/23 07:59:23;;;;;;;;;;;;;;;10.33;66.93;99701.72;5322417;26;19925;-60
2024/04/23 08:01:53;;;;;;;;;;;;;;;9.35;73.61;99700.09;5327391;26;19937;-60
2024/04/23 08:04:20;;;;;;;;;;;;;;;9.55;73.64;99698.00;5323586;26;19940;-60
2024/04/23 08:06:50;;;;;;;;;;;;;;;10.07;74.76;99700.22;5324128;26;19933;-60
2024/04/23 08:09:17;;;;;;;;;;;;;;;9.94;72.78;99701.22;5326536;26;20370;-60
2024/04/23 08:11:47;;;;;;;;;;;;;;;9.74;78.00;99700.69;5323498;26;20610;-59
2024/04/23 08:14:15;;;;;;;;;;;;;;;9.25;74.72;99705.94;5319753;26;19933;-60
2024/04/23 08:16:48;;;;;;;;;;;;;;;9.99;73.54;99700.56;5327611;26;19938;-60
2024/04/23 08:19:15;;;;;;;;;;;;;;;9.45;69.63;99701.19;5328932;26;19926;-60
2024/04/23 08:21:45;;;;;;;;;;;;;;;9.42;75.42;99698.97;5323025;26;19932;-60
2024/04/23 08:24:15;;;;;;;;;;;;;;;11.01;63.88;99695.88;5319438;26;19938;-60
2024/04/23 08:26:42;;;;;;;;;;;;;;;11.26;60.33;99694.81;5324885;26;20361;-60
2024/04/23 08:29:12;;;;;;;;;;;;;;;10.69;57.11;99689.22;5316508;26;19926;-60
2024/04/23 08:31:39;;;;;;;;;;;;;;;10.63;55.80;99684.78;5329048;26;19934;-60
2024/04/23 08:34:12;;;;;;;;;;;;;;;10.91;55.54;99676.06;5327507;26;20137;-60
2024/04/23 08:36:40;;;;;;;;;;;;;;;11.50;59.36;99684.81;5316477;26;19934;-60
2024/04/23 08:39:10;;;;;;;;;;;;;;;12.09;54.93;99685.47;5328257;26;19936;-61
2024/04/23 08:41:38;;;;;;;;;;;;;;;11.30;50.29;99679.84;5321025;26;19936;-60
2024/04/23 08:44:10;;;;;;;;;;;;;;;11.17;48.98;99677.44;5321058;26;19945;-60
2024/04/23 08:46:37;;;;;;;;;;;;;;;10.76;56.95;99676.53;5314768;26;19933;-60
2024/04/23 08:49:07;;;;;;;;;;;;;;;10.86;52.19;99671.41;5319519;26;19934;-60
2024/04/23 08:51:37;;;;;;;;;;;;;;;10.51;50.33;99666.81;5320854;26;19926;-60
2024/04/23 08:54:07;;;;;;;;;;;;;;;11.59;50.02;99666.50;5318774;26;19926;-60
2024/04/23 08:56:35;;;;;;;;;;;;;;;10.99;53.28;99665.78;5311856;26;19933;-60
2024/04/23 08:59:08;;;;;;;;;;;;;;;11.92;51.88;99665.00;5322901;26;19926;-60
2024/04/23 09:01:35;;;;;;;;;;;;;;;12.17;52.00;99668.13;5311995;26;19933;-60
2024/04/23 09:04:06;;;;;;;;;;;;;;;11.02;49.63;99656.44;5322970;26;19926;-59
2024/04/23 09:06:33;;;;;;;;;;;;;;;11.98;52.66;99661.34;5311840;26;19967;-58
2024/04/23 09:09:06;;;;;;;;;;;;;;;11.01;53.21;99654.84;5316194;26;19926;-60
2024/04/23 09:11:33;;;;;;;;;;;;;;;10.76;51.36;99657.75;5303479;26;19926;-60
2024/04/23 09:14:03;;;;;;;;;;;;;;;10.33;53.61;99648.13;5321274;26;19934;-60
2024/04/23 09:16:30;;;;;;;;;;;;;;;10.90;49.96;99642.22;5326405;26;19933;-60
2024/04/23 09:19:00;;;;;;;;;;;;;;;11.71;50.69;99645.78;5318382;26;19926;-59
2024/04/23 09:21:28;;;;;;;;;;;;;;;10.95;52.33;99639.66;5315155;26;19932;-59
2024/04/23 09:24:02;;;;;;;;;;;;;;;10.22;48.96;99638.19;5317711;26;19933;-59
2024/04/23 09:26:32;;;;;;;;;;;;;;;11.16;47.68;99635.56;5320121;26;20788;-60
2024/04/23 09:29:02;;;;;;;;;;;;;;;11.52;48.17;99634.41;5325454;26;20605;-59
2024/04/23 09:31:34;;;;;;;;;;;;;;;11.72;49.21;99634.00;5323288;26;20683;-59
2024/04/23 09:34:09;;;;;;;;;;;;;;;11.90;46.03;99635.69;5324423;26;21774;-60
2024/04/23 09:36:38;;;;;;;;;;;;;;;11.97;48.77;99632.84;5322766;26;19970;-59
2024/04/23 09:39:16;;;;;;;;;;;;;;;12.36;48.59;99627.63;5322778;26;20029;-59
2024/04/23 09:41:54;;;;;;;;;;;;;;;13.06;44.94;99632.41;5314110;26;19933;-60
2024/04/23 09:44:24;;;;;;;;;;;;;;;11.02;42.71;99619.72;5317458;26;19926;-59
2024/04/23 09:46:51;;;;;;;;;;;;;;;12.13;42.32;99624.03;5323323;26;19926;-59
2024/04/23 09:49:22;;;;;;;;;;;;;;;12.37;42.47;99623.84;5318822;26;20249;-60
2024/04/23 09:51:49;;;;;;;;;;;;;;;12.08;40.72;99618.53;5323416;26;19934;-59
2024/04/23 09:54:22;;;;;;;;;;;;;;;12.12;41.82;99614.31;5317697;26;19927;-59
2024/04/23 09:57:02;;;;;;;;;;;;;;;11.61;41.50;99624.13;5325759;26;19994;-60
2024/04/23 09:59:31;;;;;;;;;;;;;;;10.95;39.98;99612.84;5327243;26;20551;-59
2024/04/23 10:01:59;;;;;;;;;;;;;;;11.32;41.97;99613.34;5322173;26;20331;-60
2024/04/23 10:04:29;;;;;;;;;;;;;;;11.70;38.73;99609.25;5356197;26;19932;-59
2024/04/23 10:06:57;;;;;;;;;;;;;;;11.23;38.97;99601.34;5325621;26;19926;-60
2024/04/23 10:09:27;;;;;;;;;;;;;;;12.04;36.46;99602.09;5328165;26;20023;-60
2024/04/23 10:11:56;;;;;;;;;;;;;;;11.13;35.60;99598.47;5326486;26;19930;-58
2024/04/23 10:14:30;;;;;;;;;;;;;;;12.04;36.40;99595.91;5322918;26;20312;-58
2024/04/23 10:16:59;;;;;;;;;;;;;;;12.86;35.61;99589.91;5327853;26;19926;-58
2024/04/23 10:19:30;;;;;;;;;;;;;;;12.91;35.05;99591.84;5328369;26;19932;-59
2024/04/23 10:21:58;;;;;;;;;;;;;;;11.82;37.16;99587.72;5326185;26;19934;-58
2024/04/23 10:24:28;;;;;;;;;;;;;;;13.32;38.16;99584.31;5322199;26;20446;-58
2024/04/23 10:26:56;;;;;;;;;;;;;;;12.52;38.44;99589.13;5325520;26;20384;-59
2024/04/23 10:29:28;;;;;;;;;;;;;;;13.32;38.06;99578.91;5327108;26;19926;-58
2024/04/23 10:31:55;;;;;;;;;;;;;;;13.75;37.46;99583.44;5312516;26;19927;-59
2024/04/23 10:34:26;;;;;;;;;;;;;;;14.22;38.85;99579.25;5323618;26;19992;-59
2024/04/23 10:36:53;;;;;;;;;;;;;;;14.23;35.89;99576.31;5325725;26;19969;-59
2024/04/23 10:39:24;;;;;;;;;;;;;;;12.91;36.34;99576.50;5353465;26;20399;-60
2024/04/23 10:41:51;;;;;;;;;;;;;;;12.48;38.94;99567.31;5325432;26;20303;-59
2024/04/23 10:44:21;;;;;;;;;;;;;;;13.50;38.35;99561.63;5326753;26;19942;-59
2024/04/23 10:46:51;;;;;;;;;;;;;;;12.39;38.85;99562.59;5312140;26;19927;-59
2024/04/23 10:49:24;;;;;;;;;;;;;;;12.69;37.72;99554.16;5315568;26;19926;-58
2024/04/23 10:51:51;;;;;;;;;;;;;;;12.35;39.53;99551.50;5322805;26;20371;-58
2024/04/23 10:54:22;;;;;;;;;;;;;;;13.02;38.39;99547.06;5322110;26;20252;-60
2024/04/23 10:56:55;;;;;;;;;;;;;;;12.67;39.42;99551.72;5322837;26;19942;-58
2024/04/23 10:59:25;;;;;;;;;;;;;;;12.59;37.88;99536.00;5317762;26;19932;-58
2024/04/23 11:01:58;;;;;;;;;;;;;;;13.50;38.83;99537.38;5313610;26;20632;-58
2024/04/23 11:04:34;;;;;;;;;;;;;;;13.82;38.13;99532.03;5329089;26;19930;-58
2024/04/23 11:07:02;;;;;;;;;;;;;;;13.70;39.10;99528.69;5341746;26;19934;-58
2024/04/23 11:09:35;;;;;;;;;;;;;;;12.98;38.90;99527.91;5323416;26;19926;-58
2024/04/23 11:12:03;;;;;;;;;;;;;;;12.72;39.64;99524.88;5315979;26;19933;-60
2024/04/23 11:14:34;;;;;;;;;;;;;;;11.72;38.78;99529.25;5355251;26;19941;-58
2024/04/23 11:17:04;;;;;;;;;;;;;;;12.15;36.85;99533.22;5323663;26;19930;-59
2024/04/23 11:19:38;;;;;;;;;;;;;;;10.55;40.06;99517.88;5315660;26;19930;-58
2024/04/23 11:22:05;;;;;;;;;;;;;;;10.90;39.29;99511.63;5308779;26;19938;-58
2024/04/23 11:24:35;;;;;;;;;;;;;;;9.38;42.21;99515.06;5322473;26;19926;-58
2024/04/23 11:27:03;;;;;;;;;;;;;;;9.83;42.83;99509.22;5317585;26;19932;-58
2024/04/23 11:29:32;;;;;;;;;;;;;;;11.71;40.41;99508.03;5321464;26;19942;-58
2024/04/23 11:32:02;;;;;;;;;;;;;;;11.25;39.46;99505.34;5322112;26;19940;-59
2024/04/23 11:34:32;;;;;;;;;;;;;;;10.71;39.97;99500.28;5316892;26;21796;-58
2024/04/23 11:37:02;;;;;;;;;;;;;;;12.31;39.65;99493.97;5317941;26;19933;-58
2024/04/23 11:39:29;;;;;;;;;;;;;;;11.01;39.17;99497.41;5318412;26;19999;-58
2024/04/23 11:41:59;;;;;;;;;;;;;;;11.47;38.62;99492.06;5320679;26;19933;-58
2024/04/23 11:44:27;;;;;;;;;;;;;;;11.85;38.95;99485.97;5327844;26;19932;-58
2024/04/23 11:46:57;;;;;;;;;;;;;;;11.04;41.93;99481.88;5321924;26;19933;-58
2024/04/23 11:49:25;;;;;;;;;;;;;;;10.91;42.25;99481.09;5338061;26;20253;-58
2024/04/23 11:51:58;;;;;;;;;;;;;;;10.74;42.32;99482.91;5294775;26;19926;-58
2024/04/23 11:54:26;;;;;;;;;;;;;;;10.68;43.81;99473.13;5321431;26;19977;-58
2024/04/23 11:57:01;;;;;;;;;;;;;;;11.77;42.72;99469.47;5322964;26;19954;-58
2024/04/23 11:59:29;;;;;;;;;;;;;;;12.46;41.22;99463.78;5327851;26;19926;-58
2024/04/23 12:01:59;;;;;;;;;;;;;;;12.21;40.08;99469.63;5325381;26;20253;-58
2024/04/23 12:04:26;;;;;;;;;;;;;;;11.99;40.53;99454.25;5314087;26;19937;-58
2024/04/23 12:06:59;;;;;;;;;;;;;;;11.38;39.82;99448.72;5317886;26;19926;-58
2024/04/23 12:09:28;;;;;;;;;;;;;;;11.84;39.33;99454.81;5328698;26;21057;-58
2024/04/23 12:11:58;;;;;;;;;;;;;;;11.08;39.16;99445.47;5326809;26;19929;-58
2024/04/23 12:14:26;;;;;;;;;;;;;;;11.52;38.42;99451.88;5323072;26;20732;-58
2024/04/23 12:16:56;;;;;;;;;;;;;;;12.43;39.23;99440.91;5317263;26;19995;-58
2024/04/23 12:19:23;;;;;;;;;;;;;;;13.09;38.78;99443.53;5327238;26;19926;-58
2024/04/23 12:21:53;;;;;;;;;;;;;;;12.60;37.24;99438.13;5326984;26;19926;-58
2024/04/23 12:24:23;;;;;;;;;;;;;;;12.25;37.49;99431.25;5318211;26;19926;-58
2024/04/23 12:26:53;;;;;;;;;;;;;;;12.10;38.61;99431.03;5308431;26;20167;-58
2024/04/23 12:29:26;;;;;;;;;;;;;;;11.73;35.68;99420.81;5315835;26;20382;-58
2024/04/23 12:31:58;;;;;;;;;;;;;;;11.37;37.06;99422.91;5322621;26;19984;-58
2024/04/23 12:34:25;;;;;;;;;;;;;;;9.75;39.67;99422.06;5320715;26;19944;-58
2024/04/23 12:36:55;;;;;;;;;;;;;;;10.05;39.56;99416.56;5321684;26;19926;-58
2024/04/23 12:39:26;;;;;;;;;;;;;;;10.35;40.13;99418.31;5353479;26;19926;-58
2024/04/23 12:41:55;;;;;;;;;;;;;;;11.52;41.25;99413.50;5324285;26;19926;-58
2024/04/23 12:44:22;;;;;;;;;;;;;;;11.04;39.43;99422.88;5313740;26;19936;-58
2024/04/23 12:46:52;;;;;;;;;;;;;;;11.09;40.72;99414.91;5325305;26;20170;-59
2024/04/23 12:49:19;;;;;;;;;;;;;;;11.64;40.24;99417.72;5322898;26;20327;-58
2024/04/23 12:51:49;;;;;;;;;;;;;;;11.76;39.86;99414.97;5324802;26;19968;-58
2024/04/23 12:54:17;;;;;;;;;;;;;;;11.28;39.11;99416.31;5314430;26;20362;-58
2024/04/23 12:56:49;;;;;;;;;;;;;;;11.09;38.19;99412.25;5323303;26;19937;-58
2024/04/23 12:59:18;;;;;;;;;;;;;;;12.21;38.97;99411.31;5322078;26;19969;-58
2024/04/23 13:01:48;;;;;;;;;;;;;;;12.54;37.12;99403.41;5319590;26;19934;-58
2024/04/23 13:04:16;;;;;;;;;;;;;;;12.88;36.74;99395.94;5325447;26;20004;-58
2024/04/23 13:06:46;;;;;;;;;;;;;;;12.33;36.90;99394.25;5321854;26;19969;-57